createdAt,value
2023-03-06T00:00:39.838Z,1.00
2023-03-06T00:03:06.542Z,0.82
2023-03-06T00:05:33.309Z,0.74
2023-03-06T00:08:00.043Z,0.90
2023-03-06T00:10:28.082Z,0.82
2023-03-06T00:12:55.821Z,0.88
2023-03-06T00:15:22.648Z,0.88
2023-03-06T00:17:49.381Z,0.83
2023-03-06T00:20:16.019Z,0.91
2023-03-06T00:22:42.710Z,0.92
2023-03-06T00:25:14.808Z,0.92
2023-03-06T00:27:41.796Z,0.90
2023-03-06T00:30:10.547Z,0.91
2023-03-06T00:32:37.197Z,0.93
2023-03-06T00:35:04.112Z,1.04
2023-03-06T00:37:30.732Z,0.99
2023-03-06T00:39:57.333Z,0.83
2023-03-06T00:42:23.976Z,0.76
2023-03-06T00:44:51.742Z,0.60
2023-03-06T00:47:18.376Z,0.64
2023-03-06T00:49:45.288Z,0.75
2023-03-06T00:52:12.472Z,0.75
2023-03-06T00:54:39.298Z,0.60
2023-03-06T00:57:05.951Z,0.87
2023-03-06T00:59:32.556Z,0.66
2023-03-06T01:01:59.230Z,0.61
2023-03-06T01:04:27.323Z,0.67
2023-03-06T01:06:53.966Z,0.61
2023-03-06T01:09:20.601Z,0.65
2023-03-06T01:11:47.249Z,0.60
2023-03-06T01:14:13.917Z,0.60
2023-03-06T01:16:40.668Z,0.69
2023-03-06T01:19:07.340Z,0.77
2023-03-06T01:21:34.048Z,0.60
2023-03-06T01:24:00.673Z,0.51
2023-03-06T01:26:27.388Z,0.66
2023-03-06T01:28:54.015Z,0.67
2023-03-06T01:31:21.557Z,0.55
2023-03-06T01:33:48.192Z,0.55
2023-03-06T01:36:14.805Z,0.76
2023-03-06T01:38:41.489Z,0.58
2023-03-06T01:41:08.303Z,0.69
2023-03-06T01:43:36.065Z,0.68
2023-03-06T01:46:29.205Z,0.85
2023-03-06T01:49:17.358Z,0.63
2023-03-06T01:51:47.956Z,0.37
2023-03-06T01:54:23.321Z,0.55
2023-03-06T01:56:52.817Z,0.53
2023-03-06T01:59:20.032Z,0.32
2023-03-06T02:01:46.905Z,0.30
2023-03-06T02:04:14.274Z,0.31
2023-03-06T02:06:43.269Z,0.22
2023-03-06T02:09:10.968Z,0.20
2023-03-06T02:11:37.998Z,0.27
2023-03-06T02:14:04.725Z,0.27
2023-03-06T02:16:31.915Z,0.18
2023-03-06T02:18:59.387Z,-0.09
2023-03-06T02:21:28.575Z,-0.07
2023-03-06T02:24:11.739Z,-0.08
2023-03-06T02:26:38.477Z,0.02
2023-03-06T02:29:07.366Z,0.07
2023-03-06T02:31:34.236Z,0.20
2023-03-06T02:34:02.400Z,0.41
2023-03-06T02:36:29.046Z,0.38
2023-03-06T02:38:55.932Z,0.16
2023-03-06T02:41:22.592Z,0.39
2023-03-06T02:43:49.290Z,0.39
2023-03-06T02:46:16.114Z,0.19
2023-03-06T02:48:42.781Z,0.26
2023-03-06T02:51:09.366Z,0.17
2023-03-06T02:53:36.016Z,0.39
2023-03-06T02:56:02.615Z,0.19
2023-03-06T02:58:29.308Z,0.19
2023-03-06T03:00:56.048Z,0.13
2023-03-06T03:03:22.951Z,0.32
2023-03-06T03:05:49.546Z,0.23
2023-03-06T03:08:28.104Z,0.31
2023-03-06T03:10:58.724Z,0.37
2023-03-06T03:13:29.357Z,0.64
2023-03-06T03:16:03.115Z,0.61
2023-03-06T03:18:29.854Z,0.71
2023-03-06T03:20:56.536Z,0.45
2023-03-06T03:23:23.240Z,0.36
2023-03-06T03:25:49.856Z,0.39
2023-03-06T03:28:16.993Z,0.47
2023-03-06T03:30:44.879Z,0.19
2023-03-06T03:33:11.934Z,0.28
2023-03-06T03:35:39.227Z,0.05
2023-03-06T03:38:05.911Z,0.14
2023-03-06T03:40:32.815Z,0.23
2023-03-06T03:42:59.817Z,-0.05
2023-03-06T03:45:27.267Z,0.06
2023-03-06T03:47:53.959Z,0.15
2023-03-06T03:50:20.655Z,-0.02
2023-03-06T03:52:47.628Z,0.03
2023-03-06T03:55:15.082Z,-0.38
2023-03-06T03:57:43.219Z,0.14
2023-03-06T04:00:16.398Z,0.29
2023-03-06T04:03:06.210Z,-0.15
2023-03-06T04:05:37.008Z,-0.19
2023-03-06T04:08:06.208Z,-0.06
2023-03-06T04:10:36.434Z,0.05
2023-03-06T04:13:03.472Z,0.24
2023-03-06T04:15:30.650Z,-0.13
2023-03-06T04:17:57.261Z,-0.08
2023-03-06T04:20:27.938Z,0.14
2023-03-06T04:22:55.906Z,0.05
2023-03-06T04:25:23.081Z,-0.10
2023-03-06T04:27:50.123Z,0.03
2023-03-06T04:30:17.279Z,0.12
2023-03-06T04:32:44.037Z,0.16
2023-03-06T04:35:10.877Z,0.21
2023-03-06T04:37:45.265Z,0.25
2023-03-06T04:40:23.484Z,0.12
2023-03-06T04:42:50.271Z,0.06
2023-03-06T04:45:16.938Z,0.04
2023-03-06T04:47:44.028Z,0.24
2023-03-06T04:50:11.030Z,0.41
2023-03-06T04:52:37.706Z,-0.12
2023-03-06T04:55:08.650Z,0.04
2023-03-06T04:57:36.573Z,0.04
2023-03-06T05:00:04.823Z,0.36
2023-03-06T05:02:31.621Z,0.45
2023-03-06T05:04:58.290Z,0.08
2023-03-06T05:07:24.866Z,-0.13
2023-03-06T05:09:51.566Z,-0.12
2023-03-06T05:12:18.178Z,0.22
2023-03-06T05:14:47.100Z,0.25
2023-03-06T05:17:14.566Z,0.57
2023-03-06T05:19:41.178Z,0.22
2023-03-06T05:22:07.817Z,0.22
2023-03-06T05:24:34.466Z,-0.50
2023-03-06T05:27:01.066Z,-0.17
2023-03-06T05:29:28.002Z,-0.07
2023-03-06T05:31:54.978Z,0.06
2023-03-06T05:34:21.831Z,0.08
2023-03-06T05:36:48.479Z,-0.12
2023-03-06T05:39:15.107Z,0.11
2023-03-06T05:41:41.751Z,-0.35
2023-03-06T05:44:08.714Z,-0.10
2023-03-06T05:46:35.375Z,0.16
2023-03-06T05:49:01.986Z,0.35
2023-03-06T05:51:28.606Z,0.41
2023-03-06T05:53:55.232Z,0.33
2023-03-06T05:56:21.904Z,0.23
2023-03-06T05:58:48.673Z,0.41
2023-03-06T06:01:19.440Z,0.70
2023-03-06T06:03:46.383Z,0.78
2023-03-06T06:06:14.031Z,0.59
2023-03-06T06:08:40.793Z,0.41
2023-03-06T06:11:09.848Z,0.69
2023-03-06T06:13:36.933Z,0.54
2023-03-06T06:16:11.657Z,0.49
2023-03-06T06:18:41.118Z,0.56
2023-03-06T06:21:08.849Z,0.55
2023-03-06T06:23:35.448Z,0.58
2023-03-06T06:26:03.302Z,0.58
2023-03-06T06:28:30.095Z,0.92
2023-03-06T06:30:57.091Z,0.70
2023-03-06T06:33:23.877Z,0.72
2023-03-06T06:35:50.814Z,0.90
2023-03-06T06:38:17.533Z,1.01
2023-03-06T06:40:45.657Z,0.88
2023-03-06T06:43:13.540Z,0.80
2023-03-06T06:45:40.256Z,0.84
2023-03-06T06:48:06.977Z,0.78
2023-03-06T06:50:33.681Z,0.82
2023-03-06T06:53:00.259Z,1.14
2023-03-06T06:55:27.167Z,1.16
2023-03-06T06:57:53.780Z,1.14
2023-03-06T07:00:24.214Z,1.08
2023-03-06T07:02:51.304Z,1.10
2023-03-06T07:05:21.004Z,0.88
2023-03-06T07:07:50.914Z,0.97
2023-03-06T07:10:19.906Z,1.10
2023-03-06T07:12:46.672Z,1.16
2023-03-06T07:15:14.520Z,0.91
2023-03-06T07:17:41.134Z,1.57
2023-03-06T07:20:08.895Z,1.48
2023-03-06T07:22:49.991Z,1.51
2023-03-06T07:25:17.367Z,1.51
2023-03-06T07:27:48.796Z,1.40
2023-03-06T07:30:19.364Z,1.51
2023-03-06T07:32:45.975Z,1.42
2023-03-06T07:35:20.124Z,1.46
2023-03-06T07:37:47.163Z,1.52
2023-03-06T07:40:13.789Z,1.30
2023-03-06T07:42:40.415Z,1.40
2023-03-06T07:45:12.723Z,1.50
2023-03-06T07:47:39.822Z,1.48
2023-03-06T07:50:07.388Z,1.57
2023-03-06T07:52:34.704Z,1.49
2023-03-06T07:55:01.336Z,1.30
2023-03-06T07:57:27.980Z,1.20
2023-03-06T07:59:54.683Z,1.17
2023-03-06T08:02:21.264Z,1.16
2023-03-06T08:04:54.745Z,1.04
2023-03-06T08:07:21.609Z,1.17
2023-03-06T08:09:48.356Z,1.33
2023-03-06T08:12:16.668Z,1.20
2023-03-06T08:14:43.382Z,1.18
2023-03-06T08:17:09.981Z,1.10
2023-03-06T08:19:36.576Z,1.17
2023-03-06T08:22:05.019Z,1.34
2023-03-06T08:24:32.520Z,1.53
2023-03-06T08:26:59.188Z,1.40
2023-03-06T08:29:26.277Z,1.49
2023-03-06T08:31:53.081Z,1.34
2023-03-06T08:34:20.980Z,1.59
2023-03-06T08:36:47.591Z,1.83
2023-03-06T08:39:14.197Z,1.98
2023-03-06T08:41:42.020Z,1.82
2023-03-06T08:44:08.672Z,1.69
2023-03-06T08:46:35.349Z,1.77
2023-03-06T08:49:01.964Z,1.80
2023-03-06T08:51:29.043Z,2.11
2023-03-06T08:53:56.203Z,1.88
2023-03-06T08:56:27.689Z,1.88
2023-03-06T08:58:54.604Z,1.86
2023-03-06T09:01:26.346Z,1.79
2023-03-06T09:03:56.845Z,1.88
2023-03-06T09:06:23.780Z,2.06
2023-03-06T09:08:53.676Z,1.99
2023-03-06T09:11:20.544Z,2.06
2023-03-06T09:13:47.149Z,2.30
2023-03-06T09:16:13.827Z,1.86
2023-03-06T09:18:40.435Z,1.69
2023-03-06T09:21:07.497Z,1.83
2023-03-06T09:23:34.207Z,1.81
2023-03-06T09:26:00.941Z,1.98
2023-03-06T09:28:27.604Z,2.27
2023-03-06T09:30:54.437Z,2.61
2023-03-06T09:33:21.052Z,2.69
2023-03-06T09:35:49.631Z,3.11
2023-03-06T09:38:16.842Z,3.33
2023-03-06T09:40:58.805Z,3.04
2023-03-06T09:43:32.653Z,3.22
2023-03-06T09:45:59.360Z,2.89
2023-03-06T09:48:55.710Z,2.66
2023-03-06T09:51:22.964Z,2.68
2023-03-06T09:53:57.343Z,2.69
2023-03-06T09:56:24.441Z,2.66
2023-03-06T09:58:54.363Z,2.54
2023-03-06T10:01:22.100Z,2.44
2023-03-06T10:03:54.717Z,2.61
2023-03-06T10:06:22.702Z,2.51
2023-03-06T10:08:55.384Z,2.64
2023-03-06T10:11:32.681Z,2.34
2023-03-06T10:14:17.994Z,2.40
2023-03-06T10:16:44.685Z,2.37
2023-03-06T10:19:15.521Z,2.70
2023-03-06T10:21:58.468Z,2.15
2023-03-06T10:24:42.823Z,2.47
2023-03-06T10:27:09.286Z,2.51
2023-03-06T10:30:02.817Z,2.52
2023-03-06T10:32:46.141Z,2.51
2023-03-06T10:35:15.850Z,2.43
2023-03-06T10:37:42.368Z,2.48
2023-03-06T10:40:13.527Z,2.38
2023-03-06T10:42:40.019Z,2.51
2023-03-06T10:45:07.166Z,2.49
2023-03-06T10:47:35.387Z,2.76
2023-03-06T10:50:02.339Z,2.58
2023-03-06T10:52:29.727Z,2.66
2023-03-06T10:55:12.753Z,2.64
2023-03-06T10:57:39.337Z,2.76
2023-03-06T11:00:07.008Z,2.63
2023-03-06T11:02:37.315Z,2.86
2023-03-06T11:05:03.890Z,2.89
2023-03-06T11:07:33.899Z,2.86
2023-03-06T11:10:16.888Z,2.83
2023-03-06T11:12:43.626Z,2.85
2023-03-06T11:15:12.764Z,2.73
2023-03-06T11:17:49.656Z,2.51
2023-03-06T11:20:17.336Z,2.41
2023-03-06T11:23:02.649Z,2.46
2023-03-06T11:25:42.696Z,2.38
2023-03-06T11:28:13.803Z,2.18
2023-03-06T11:30:42.296Z,2.35
2023-03-06T11:33:11.576Z,2.55
2023-03-06T11:35:47.075Z,2.52
2023-03-06T11:38:25.595Z,2.49
2023-03-06T11:40:53.473Z,2.43
2023-03-06T11:43:19.855Z,2.50
2023-03-06T11:45:52.289Z,2.54
2023-03-06T11:48:20.924Z,2.81
2023-03-06T11:50:51.178Z,2.82
2023-03-06T11:53:18.779Z,2.77
2023-03-06T11:55:49.045Z,2.70
2023-03-06T11:58:34.390Z,2.70
2023-03-06T12:01:09.959Z,3.01
2023-03-06T12:03:39.521Z,2.87
2023-03-06T12:06:10.305Z,2.78
2023-03-06T12:08:36.746Z,2.67
2023-03-06T12:11:10.838Z,2.63
2023-03-06T12:13:50.111Z,2.57
2023-03-06T12:16:25.435Z,2.67
2023-03-06T12:18:58.668Z,2.51
2023-03-06T12:21:38.686Z,2.66
2023-03-06T12:24:11.659Z,2.77
2023-03-06T12:26:53.409Z,2.59
2023-03-06T12:29:19.932Z,2.70
2023-03-06T12:31:46.436Z,3.23
2023-03-06T12:34:15.966Z,3.46
2023-03-06T12:36:54.520Z,3.24
2023-03-06T12:39:32.884Z,3.59
2023-03-06T12:42:04.950Z,3.76
2023-03-06T12:44:34.899Z,3.49
2023-03-06T12:47:08.717Z,3.44
2023-03-06T12:49:38.762Z,3.42
2023-03-06T12:52:06.000Z,3.15
2023-03-06T12:54:33.685Z,3.32
2023-03-06T12:57:00.285Z,3.51
2023-03-06T12:59:34.132Z,3.52
2023-03-06T13:02:03.632Z,3.76
2023-03-06T13:04:48.948Z,3.90
2023-03-06T13:07:22.923Z,3.67
2023-03-06T13:09:55.925Z,3.61
2023-03-06T13:12:45.425Z,3.70
2023-03-06T13:15:30.859Z,3.61
2023-03-06T13:17:57.367Z,3.79
2023-03-06T13:20:38.060Z,3.75
2023-03-06T13:23:23.237Z,3.70
2023-03-06T13:25:50.556Z,3.35
2023-03-06T13:28:22.829Z,3.50
2023-03-06T13:30:50.930Z,3.46
2023-03-06T13:33:25.874Z,3.58
2023-03-06T13:35:55.448Z,3.36
2023-03-06T13:38:48.506Z,3.18
2023-03-06T13:41:20.859Z,3.00
2023-03-06T13:43:47.474Z,3.00
2023-03-06T13:46:25.947Z,2.95
2023-03-06T13:49:05.301Z,2.96
2023-03-06T13:51:33.562Z,2.75
2023-03-06T13:54:00.068Z,2.53
2023-03-06T13:56:33.998Z,2.34
2023-03-06T13:59:03.614Z,2.15
2023-03-06T14:01:42.183Z,2.17
2023-03-06T14:04:18.154Z,2.31
2023-03-06T14:06:51.926Z,2.30
2023-03-06T14:09:24.544Z,2.24
2023-03-06T14:11:52.570Z,2.34
2023-03-06T14:14:20.317Z,1.92
2023-03-06T14:16:50.332Z,1.43
2023-03-06T14:19:17.375Z,1.25
2023-03-06T14:21:50.201Z,1.29
2023-03-06T14:24:17.724Z,1.17
2023-03-06T14:26:45.202Z,0.98
2023-03-06T14:29:24.883Z,0.95
2023-03-06T14:31:52.156Z,0.81
2023-03-06T14:34:22.660Z,0.98
2023-03-06T14:36:49.872Z,1.21
2023-03-06T14:39:35.061Z,1.03
2023-03-06T14:42:16.626Z,0.90
2023-03-06T14:44:43.734Z,1.02
2023-03-06T14:47:29.538Z,1.25
2023-03-06T14:50:24.223Z,1.72
2023-03-06T14:53:10.574Z,1.28
2023-03-06T14:55:37.255Z,1.68
2023-03-06T14:58:08.105Z,2.16
2023-03-06T15:00:38.039Z,2.34
2023-03-06T15:03:06.011Z,2.43
2023-03-06T15:05:32.745Z,2.66
2023-03-06T15:08:03.957Z,2.62
2023-03-06T15:10:32.286Z,2.77
2023-03-06T15:13:20.498Z,2.74
2023-03-06T15:15:56.155Z,2.51
2023-03-06T15:18:28.758Z,2.44
2023-03-06T15:21:05.551Z,2.50
2023-03-06T15:23:42.535Z,2.28
2023-03-06T15:26:31.746Z,2.26
2023-03-06T15:29:23.028Z,2.30
2023-03-06T15:31:49.832Z,2.11
2023-03-06T15:34:23.989Z,2.11
2023-03-06T15:36:54.657Z,2.00
2023-03-06T15:39:40.442Z,1.46
2023-03-06T15:42:18.335Z,1.41
2023-03-06T15:44:53.202Z,1.21
2023-03-06T15:47:20.410Z,1.33
2023-03-06T15:49:49.055Z,1.32
2023-03-06T15:52:15.688Z,1.50
2023-03-06T15:54:42.416Z,1.57
2023-03-06T15:57:15.524Z,1.95
2023-03-06T15:59:43.118Z,1.79
2023-03-06T16:02:18.140Z,1.92
2023-03-06T16:04:44.960Z,1.93
2023-03-06T16:07:12.159Z,1.84
2023-03-06T16:09:38.753Z,2.00
2023-03-06T16:12:05.812Z,2.24
2023-03-06T16:14:32.450Z,2.29
2023-03-06T16:16:59.665Z,1.91
2023-03-06T16:19:27.579Z,1.87
2023-03-06T16:21:55.336Z,2.25
2023-03-06T16:24:22.043Z,1.56
2023-03-06T16:26:50.922Z,1.40
2023-03-06T16:29:19.097Z,1.57
2023-03-06T16:31:45.850Z,1.17
2023-03-06T16:34:12.553Z,1.38
2023-03-06T16:36:39.313Z,1.58
2023-03-06T16:39:05.996Z,1.52
2023-03-06T16:41:32.602Z,1.65
2023-03-06T16:43:59.261Z,1.48
2023-03-06T16:46:25.924Z,1.93
2023-03-06T16:49:03.381Z,2.13
2023-03-06T16:51:30.189Z,2.26
2023-03-06T16:53:56.973Z,2.26
2023-03-06T16:56:23.594Z,2.18
2023-03-06T16:58:50.176Z,2.24
2023-03-06T17:01:18.756Z,2.23
2023-03-06T17:03:45.604Z,2.37
2023-03-06T17:06:19.626Z,2.43
2023-03-06T17:08:46.620Z,2.15
2023-03-06T17:11:13.492Z,2.14
2023-03-06T17:13:40.361Z,2.41
2023-03-06T17:16:08.286Z,2.39
2023-03-06T17:18:35.066Z,2.42
2023-03-06T17:21:01.691Z,2.37
2023-03-06T17:23:31.054Z,2.51
2023-03-06T17:26:08.956Z,2.76
2023-03-06T17:28:38.547Z,2.62
2023-03-06T17:31:15.736Z,2.66
2023-03-06T17:33:42.467Z,2.77
2023-03-06T17:36:09.560Z,2.56
2023-03-06T17:38:36.397Z,2.47
2023-03-06T17:41:04.153Z,2.31
2023-03-06T17:43:31.534Z,2.39
2023-03-06T17:46:01.749Z,2.27
2023-03-06T17:48:28.370Z,2.36
2023-03-06T17:50:55.462Z,2.47
2023-03-06T17:53:22.144Z,2.47
2023-03-06T17:55:48.740Z,2.34
2023-03-06T17:58:15.383Z,2.37
2023-03-06T18:00:42.007Z,2.28
2023-03-06T18:03:09.428Z,2.33
2023-03-06T18:05:36.447Z,2.05
2023-03-06T18:08:03.710Z,2.18
2023-03-06T18:10:30.340Z,2.17
2023-03-06T18:12:56.960Z,1.87
2023-03-06T18:15:23.574Z,2.08
2023-03-06T18:17:50.213Z,1.74
2023-03-06T18:20:17.240Z,1.75
2023-03-06T18:22:44.300Z,1.79
2023-03-06T18:25:11.311Z,1.56
2023-03-06T18:27:37.933Z,1.55
2023-03-06T18:30:05.246Z,1.39
2023-03-06T18:32:31.926Z,1.31
2023-03-06T18:34:58.556Z,1.29
2023-03-06T18:37:25.272Z,1.32
2023-03-06T18:39:52.014Z,1.25
2023-03-06T18:42:18.811Z,1.17
2023-03-06T18:44:47.830Z,1.18
2023-03-06T18:47:15.505Z,1.12
2023-03-06T18:49:44.209Z,1.04
2023-03-06T18:52:11.254Z,1.24
2023-03-06T18:54:37.968Z,1.28
2023-03-06T18:57:04.672Z,1.30
2023-03-06T18:59:31.450Z,1.54
2023-03-06T19:01:58.647Z,1.52
2023-03-06T19:04:26.139Z,1.53
2023-03-06T19:06:52.906Z,1.67
2023-03-06T19:09:19.525Z,1.76
2023-03-06T19:11:48.308Z,1.88
2023-03-06T19:14:16.076Z,2.10
2023-03-06T19:16:43.449Z,1.83
2023-03-06T19:19:11.033Z,1.83
2023-03-06T19:21:38.245Z,1.93
2023-03-06T19:24:06.808Z,1.84
2023-03-06T19:26:33.691Z,1.98
2023-03-06T19:29:00.757Z,1.87
2023-03-06T19:31:28.061Z,2.09
2023-03-06T19:33:55.968Z,2.17
2023-03-06T19:36:27.852Z,1.93
2023-03-06T19:39:00.534Z,1.75
2023-03-06T19:41:27.979Z,1.78
2023-03-06T19:43:57.232Z,1.67
2023-03-06T19:46:24.306Z,1.57
2023-03-06T19:48:56.615Z,1.85
2023-03-06T19:51:24.307Z,1.97
2023-03-06T19:53:51.917Z,1.80
2023-03-06T19:56:23.517Z,1.77
2023-03-06T19:58:50.493Z,1.69
2023-03-06T20:01:18.906Z,1.16
2023-03-06T20:03:45.968Z,1.37
2023-03-06T20:06:17.501Z,1.41
2023-03-06T20:08:44.552Z,1.49
2023-03-06T20:11:26.039Z,1.74
2023-03-06T20:13:53.983Z,1.48
2023-03-06T20:16:21.487Z,1.48
2023-03-06T20:18:48.498Z,1.56
2023-03-06T20:21:15.460Z,1.64
2023-03-06T20:23:42.654Z,1.66
2023-03-06T20:26:11.999Z,1.73
2023-03-06T20:28:39.427Z,1.90
2023-03-06T20:31:11.252Z,1.73
2023-03-06T20:33:38.455Z,1.59
2023-03-06T20:36:10.971Z,1.67
2023-03-06T20:38:39.538Z,1.72
2023-03-06T20:41:06.602Z,1.71
2023-03-06T20:43:34.088Z,1.74
2023-03-06T20:46:02.239Z,1.79
2023-03-06T20:48:29.250Z,1.38
2023-03-06T20:51:10.953Z,1.53
2023-03-06T20:53:38.051Z,1.76
2023-03-06T20:56:05.595Z,1.64
2023-03-06T20:58:32.639Z,1.49
2023-03-06T21:01:02.221Z,1.57
2023-03-06T21:03:29.774Z,1.50
2023-03-06T21:05:56.990Z,1.75
2023-03-06T21:08:23.883Z,1.79
2023-03-06T21:10:50.798Z,1.83
2023-03-06T21:13:17.656Z,1.69
2023-03-06T21:15:44.627Z,2.04
2023-03-06T21:18:11.501Z,2.01
2023-03-06T21:20:39.357Z,2.12
2023-03-06T21:23:06.584Z,1.59
2023-03-06T21:25:33.801Z,1.98
2023-03-06T21:28:02.407Z,2.23
2023-03-06T21:30:29.735Z,2.09
2023-03-06T21:32:57.030Z,2.04
2023-03-06T21:35:24.686Z,1.73
2023-03-06T21:37:51.357Z,1.87
2023-03-06T21:40:18.629Z,1.62
2023-03-06T21:42:46.692Z,1.55
2023-03-06T21:45:13.362Z,1.56
2023-03-06T21:47:41.134Z,1.60
2023-03-06T21:50:10.398Z,1.73
2023-03-06T21:52:38.276Z,1.59
2023-03-06T21:55:06.071Z,1.70
2023-03-06T21:57:33.645Z,1.74
2023-03-06T22:00:04.655Z,1.68
2023-03-06T22:02:37.784Z,1.84
2023-03-06T22:05:07.427Z,1.80
2023-03-06T22:07:37.853Z,1.61
2023-03-06T22:10:09.389Z,1.69
2023-03-06T22:12:36.510Z,1.35
2023-03-06T22:15:03.367Z,1.36
2023-03-06T22:17:31.096Z,1.52
2023-03-06T22:19:58.638Z,1.28
2023-03-06T22:22:26.633Z,1.38
2023-03-06T22:24:54.436Z,1.33
2023-03-06T22:27:21.920Z,1.36
2023-03-06T22:29:49.665Z,1.25
2023-03-06T22:32:16.560Z,1.30
2023-03-06T22:34:43.330Z,1.48
2023-03-06T22:40:17.098Z,1.20
2023-03-06T22:42:43.785Z,1.43
2023-03-06T22:45:11.079Z,1.39
2023-03-06T22:47:37.824Z,1.44
2023-03-06T22:50:05.931Z,1.51
2023-03-06T22:52:33.103Z,1.52
2023-03-06T22:54:59.884Z,1.26
2023-03-06T22:57:26.616Z,1.41
2023-03-06T22:59:53.271Z,1.39
2023-03-06T23:02:19.863Z,1.60
2023-03-06T23:04:52.276Z,1.39
2023-03-06T23:07:22.113Z,1.41
2023-03-06T23:09:49.691Z,1.50
2023-03-06T23:12:34.832Z,1.62
2023-03-06T23:15:19.938Z,1.42
2023-03-06T23:18:05.066Z,1.59
2023-03-06T23:20:50.058Z,1.56
2023-03-06T23:23:36.384Z,1.52
2023-03-06T23:26:04.833Z,1.52
2023-03-06T23:28:31.616Z,1.47
2023-03-06T23:30:58.286Z,1.59
2023-03-06T23:33:25.096Z,1.36
2023-03-06T23:35:51.794Z,1.33
2023-03-06T23:38:18.579Z,1.40
2023-03-06T23:40:45.558Z,1.46
2023-03-06T23:43:12.149Z,1.39
2023-03-06T23:45:38.919Z,1.53
2023-03-06T23:48:07.433Z,1.65
2023-03-06T23:50:34.082Z,1.70
2023-03-06T23:53:00.691Z,1.62
2023-03-06T23:55:27.316Z,1.70
2023-03-06T23:57:53.894Z,1.45
